Time;durP1;ratioP1;P1;durP2;ratioP2;P2;SDS_P1;SDS_P2;PMS_P1;PMS_P2;Temp;Humidity;BMP_temperature;BMP_pressure;BME280_temperature;BME280_humidity;BME280_pressure;Samples;Min_cycle;Max_cycle;Signal;HPM_P1;HPM_P2
2022/03/12 00:02:09;;;;;;;11.70;5.57;;;;;;;9.74;27.17;99745.41;4887974;29;20071;-88
2022/03/12 00:04:34;;;;;;;11.45;5.43;;;;;;;9.90;27.17;99737.34;4889451;29;20037;-88
2022/03/12 00:07:00;;;;;;;10.57;6.03;;;;;;;9.66;27.28;99737.72;4887636;29;20037;-87
2022/03/12 00:09:25;;;;;;;16.90;5.95;;;;;;;9.77;27.36;99760.38;4889239;29;20698;-87
2022/03/12 00:11:55;;;;;;;11.48;5.00;;;;;;;9.82;27.28;99749.56;4887692;29;20084;-88
2022/03/12 00:14:23;;;;;;;15.48;6.13;;;;;;;9.75;26.95;99759.81;4888197;29;20032;-87
2022/03/12 00:16:49;;;;;;;16.67;7.07;;;;;;;9.63;27.67;99760.81;4901781;29;20048;-88
2022/03/12 00:19:15;;;;;;;10.98;5.72;;;;;;;9.71;27.72;99742.38;4898487;29;20135;-86
2022/03/12 00:21:42;;;;;;;10.85;5.18;;;;;;;9.77;27.28;99744.88;4907185;29;20063;-88
2022/03/12 00:24:12;;;;;;;13.75;5.80;;;;;;;9.74;27.23;99747.31;4890078;29;20032;-87
2022/03/12 00:26:40;;;;;;;12.00;6.00;;;;;;;9.80;27.43;99757.16;4888794;29;20037;-87
2022/03/12 00:29:14;;;;;;;14.05;6.47;;;;;;;9.84;27.34;99747.38;4904896;29;20464;-87
2022/03/12 00:31:41;;;;;;;16.63;6.57;;;;;;;9.71;27.06;99745.09;4908154;29;20032;-87
2022/03/12 00:34:06;;;;;;;13.02;5.63;;;;;;;9.73;27.12;99743.75;4906772;29;20483;-88
2022/03/12 00:36:31;;;;;;;11.80;6.05;;;;;;;9.66;27.57;99741.25;4906297;29;20036;-87
2022/03/12 00:38:57;;;;;;;15.20;6.82;;;;;;;9.44;27.85;99746.75;4907485;29;20036;-88
2022/03/12 00:44:25;;;;;;;16.17;6.60;;;;;;;9.39;27.67;99738.56;4905473;29;20127;-87
2022/03/12 00:46:50;;;;;;;10.20;5.38;;;;;;;9.56;27.95;99747.41;4892968;29;20032;-87
2022/03/12 00:49:17;;;;;;;10.07;5.15;;;;;;;9.67;27.77;99751.06;4887970;29;20044;-87
2022/03/12 00:51:44;;;;;;;11.32;5.53;;;;;;;9.56;27.84;99741.97;4887998;29;20087;-88
2022/03/12 00:54:10;;;;;;;12.35;7.03;;;;;;;9.60;27.69;99750.44;4885802;29;20060;-86
2022/03/12 00:56:39;;;;;;;13.07;4.53;;;;;;;9.77;27.73;99760.38;4871256;29;20040;-87
2022/03/12 00:59:05;;;;;;;11.88;6.30;;;;;;;9.64;27.87;99762.44;4886464;29;20036;-87
2022/03/12 01:01:30;;;;;;;11.45;5.57;;;;;;;9.71;27.91;99762.25;4888373;29;20037;-87
2022/03/12 01:03:55;;;;;;;13.95;6.53;;;;;;;9.57;27.89;99761.84;4887234;29;20033;-87
2022/03/12 01:06:22;;;;;;;11.95;5.82;;;;;;;9.89;27.57;99758.31;4887529;29;20466;-86
2022/03/12 01:08:47;;;;;;;11.45;5.75;;;;;;;9.74;27.47;99760.91;4871249;29;20389;-87
2022/03/12 01:11:13;;;;;;;10.45;5.25;;;;;;;9.91;27.84;99771.66;4886742;29;20037;-87
2022/03/12 01:13:38;;;;;;;14.00;5.57;;;;;;;9.86;27.69;99764.28;4887598;29;20040;-87
2022/03/12 01:16:05;;;;;;;11.77;5.20;;;;;;;9.72;27.83;99763.06;4894296;29;20059;-87
2022/03/12 01:18:31;;;;;;;14.50;7.32;;;;;;;9.46;28.30;99759.03;4905237;29;20032;-87
2022/03/12 01:21:08;;;;;;;11.23;5.75;;;;;;;9.84;28.05;99766.44;4885984;29;20579;-86
2022/03/12 01:23:33;;;;;;;11.52;5.30;;;;;;;9.73;28.16;99761.97;4871279;29;20064;-87
2022/03/12 01:25:58;;;;;;;11.33;5.93;;;;;;;9.64;28.10;99765.16;4887238;29;20040;-84
2022/03/12 01:28:23;;;;;;;12.80;6.17;;;;;;;9.64;27.93;99773.34;4886541;29;20760;-87
2022/03/12 01:30:49;;;;;;;12.40;6.30;;;;;;;9.56;28.53;99760.19;4888264;29;20306;-86
2022/03/12 01:33:14;;;;;;;13.55;7.13;;;;;;;9.44;28.56;99769.34;4889794;29;20263;-86
2022/03/12 01:35:39;;;;;;;11.30;4.65;;;;;;;9.53;28.76;99771.63;4891992;29;20093;-86
2022/03/12 01:38:05;;;;;;;10.55;5.50;;;;;;;9.33;28.72;99778.50;4872599;29;20064;-86
2022/03/12 01:40:31;;;;;;;11.88;7.30;;;;;;;9.44;28.62;99769.34;4891548;29;20068;-86
2022/03/12 01:42:56;;;;;;;11.10;5.32;;;;;;;9.62;28.62;99770.06;4890266;29;20052;-87
2022/03/12 01:45:28;;;;;;;12.18;5.97;;;;;;;9.51;28.67;99762.88;4891292;29;20520;-87
2022/03/12 01:47:55;;;;;;;14.35;5.93;;;;;;;9.40;28.69;99779.09;4879639;29;20400;-87
2022/03/12 01:50:24;;;;;;;22.23;6.15;;;;;;;9.52;28.48;99767.25;4889066;29;20156;-87
2022/03/12 01:52:49;;;;;;;12.55;6.10;;;;;;;9.77;28.16;99774.00;4888537;29;20131;-86
2022/03/12 01:55:15;;;;;;;13.85;6.57;;;;;;;9.60;28.92;99771.41;4890018;29;20143;-86
2022/03/12 01:57:40;;;;;;;16.95;7.55;;;;;;;9.53;28.53;99771.63;4874854;29;20250;-86
2022/03/12 02:00:06;;;;;;;11.50;5.78;;;;;;;9.77;28.25;99771.28;4890149;29;20044;-86
2022/03/12 02:02:31;;;;;;;12.25;7.03;;;;;;;9.61;28.24;99773.88;4890768;29;20028;-86
2022/03/12 02:04:57;;;;;;;12.18;5.93;;;;;;;9.76;28.34;99775.09;4874707;29;20381;-86
2022/03/12 02:07:22;;;;;;;16.77;5.82;;;;;;;9.46;29.20;99780.81;4890336;29;20273;-86
2022/03/12 02:09:50;;;;;;;14.63;7.28;;;;;;;9.40;28.96;99779.09;4891989;29;20032;-86
2022/03/12 02:12:15;;;;;;;12.32;6.25;;;;;;;9.64;28.85;99773.34;4889607;29;20032;-86
2022/03/12 02:14:40;;;;;;;14.85;7.28;;;;;;;9.37;28.83;99776.91;4890698;29;20119;-87
2022/03/12 02:17:10;;;;;;;11.18;5.30;;;;;;;9.29;29.01;99777.38;4890625;29;20103;-86
2022/03/12 02:19:37;;;;;;;12.10;6.15;;;;;;;9.49;29.04;99781.38;4892471;29;20128;-86
2022/03/12 02:22:06;;;;;;;11.25;4.68;;;;;;;9.56;29.02;99792.84;4909998;29;20108;-87
2022/03/12 02:24:34;;;;;;;12.25;5.82;;;;;;;9.52;29.46;99784.38;4908774;29;20034;-86
2022/03/12 02:27:01;;;;;;;10.85;6.03;;;;;;;9.62;28.77;99780.94;4910610;29;20043;-85
2022/03/12 02:29:27;;;;;;;10.73;5.28;;;;;;;9.59;28.86;99797.81;4908382;29;20317;-86
2022/03/12 02:32:11;;;;;;;16.90;7.18;;;;;;;9.58;29.21;99796.97;4910228;29;20346;-86
2022/03/12 02:34:48;;;;;;;14.52;6.43;;;;;;;9.44;29.33;99799.28;4892217;29;20032;-87
2022/03/12 02:40:13;;;;;;;9.63;5.38;;;;;;;9.65;28.88;99785.88;4897213;29;20044;-87
2022/03/12 02:42:39;;;;;;;10.23;5.57;;;;;;;9.56;28.79;99793.69;4907506;29;20434;-86
2022/03/12 02:45:07;;;;;;;14.80;6.00;;;;;;;9.62;29.02;99793.75;4909933;29;20114;-87
2022/03/12 02:47:34;;;;;;;10.18;5.82;;;;;;;9.67;28.82;99794.63;4871305;29;20032;-87
2022/03/12 02:50:03;;;;;;;14.07;6.97;;;;;;;9.73;29.10;99790.03;4871857;29;20048;-86
2022/03/12 02:52:31;;;;;;;11.38;6.00;;;;;;;9.54;29.03;99798.56;4872141;29;20033;-86
2022/03/12 02:54:58;;;;;;;14.23;6.20;;;;;;;9.58;29.12;99807.03;4870392;29;20033;-86
2022/03/12 02:57:26;;;;;;;12.30;7.15;;;;;;;9.46;29.05;99797.13;4871964;29;20025;-85
2022/03/12 02:59:53;;;;;;;14.48;6.85;;;;;;;9.35;29.76;99806.28;4870393;29;20036;-86
2022/03/12 03:02:25;;;;;;;13.60;5.72;;;;;;;9.60;29.71;99813.03;4872297;29;20057;-86
2022/03/12 03:04:51;;;;;;;11.07;5.97;;;;;;;9.85;29.18;99816.25;4871111;29;20097;-87
2022/03/12 03:07:16;;;;;;;15.88;7.03;;;;;;;9.62;29.45;99813.59;4871113;29;20033;-87
2022/03/12 03:09:41;;;;;;;14.23;5.70;;;;;;;9.58;29.25;99820.66;4871948;29;20120;-87
2022/03/12 03:12:09;;;;;;;13.20;7.20;;;;;;;9.09;30.68;99838.63;4870178;29;20303;-87
2022/03/12 03:14:36;;;;;;;11.85;5.10;;;;;;;9.45;30.11;99830.88;4872078;29;20029;-86
2022/03/12 03:17:03;;;;;;;16.58;6.93;;;;;;;9.45;30.22;99820.00;4900501;29;20062;-86
2022/03/12 03:19:29;;;;;;;12.85;6.13;;;;;;;9.61;29.87;99828.31;4909256;29;20036;-87
2022/03/12 03:21:56;;;;;;;14.55;5.88;;;;;;;9.44;30.42;99823.78;4907955;29;20032;-85
2022/03/12 03:24:23;;;;;;;32.58;6.43;;;;;;;9.32;30.48;99831.25;4891872;29;20042;-86
2022/03/12 03:26:49;;;;;;;15.80;7.55;;;;;;;9.30;30.54;99826.06;4908810;29;20117;-87
2022/03/12 03:29:15;;;;;;;18.55;7.88;;;;;;;9.26;30.97;99826.84;4907140;29;20522;-87
2022/03/12 03:31:41;;;;;;;14.95;7.38;;;;;;;9.29;30.79;99827.16;4909652;29;20036;-86
2022/03/12 03:34:06;;;;;;;17.38;7.85;;;;;;;9.36;30.91;99826.94;4907305;29;20084;-87
2022/03/12 03:36:31;;;;;;;12.07;6.25;;;;;;;9.27;31.02;99817.59;4909250;29;20110;-88
2022/03/12 03:38:57;;;;;;;14.95;5.93;;;;;;;9.44;30.96;99821.06;4907178;29;20032;-87
2022/03/12 03:41:22;;;;;;;12.30;6.30;;;;;;;9.21;31.33;99825.69;4909325;29;20032;-86
2022/03/12 03:44:01;;;;;;;11.45;5.57;;;;;;;9.29;31.00;99820.91;4907947;29;20471;-87
2022/03/12 03:46:26;;;;;;;12.70;6.32;;;;;;;9.32;31.06;99820.38;4907477;29;20035;-87
2022/03/12 03:48:53;;;;;;;11.93;5.28;;;;;;;9.39;30.73;99836.50;4908501;29;20056;-86
2022/03/12 03:51:20;;;;;;;12.20;6.07;;;;;;;9.09;31.38;99830.47;4906550;29;20423;-87
2022/03/12 03:53:45;;;;;;;10.85;5.97;;;;;;;9.26;31.20;99840.44;4908234;29;20024;-87
2022/03/12 03:56:11;;;;;;;13.93;5.57;;;;;;;9.16;31.92;99839.25;4906900;29;20259;-86
2022/03/12 03:58:37;;;;;;;12.95;7.35;;;;;;;9.21;31.73;99847.47;4908410;29;20043;-86
2022/03/12 04:01:12;;;;;;;13.73;7.28;;;;;;;9.10;32.04;99841.09;4907635;29;20032;-86
2022/03/12 04:03:44;;;;;;;14.80;6.13;;;;;;;9.09;31.66;99853.03;4907600;29;20536;-86
2022/03/12 04:06:10;;;;;;;11.73;6.35;;;;;;;9.36;31.68;99854.16;4907953;29;20075;-87
2022/03/12 04:08:36;;;;;;;13.63;5.25;;;;;;;9.47;31.83;99852.38;4906763;29;20032;-86
2022/03/12 04:11:05;;;;;;;14.82;7.78;;;;;;;9.05;32.04;99848.38;4908470;29;20031;-86
2022/03/12 04:13:31;;;;;;;12.80;6.55;;;;;;;9.11;32.14;99855.50;4894548;29;20415;-86
2022/03/12 04:15:58;;;;;;;12.98;5.63;;;;;;;9.15;32.43;99859.38;4896963;29;20272;-86
2022/03/12 04:18:25;;;;;;;13.32;6.32;;;;;;;9.41;32.19;99861.56;4907353;29;20032;-87
2022/03/12 04:20:50;;;;;;;11.63;6.35;;;;;;;9.30;32.19;99874.22;4906946;29;20086;-87
2022/03/12 04:23:18;;;;;;;13.07;5.75;;;;;;;9.33;32.82;99871.84;4908258;29;20064;-87
2022/03/12 04:28:46;;;;;;;15.35;6.82;;;;;;;9.54;32.42;99882.13;4907504;29;20047;-86
2022/03/12 04:31:13;;;;;;;14.57;6.38;;;;;;;9.26;33.17;99882.06;4907445;29;20387;-87
2022/03/12 04:33:39;;;;;;;10.85;5.63;;;;;;;9.21;33.42;99879.31;4907239;29;20539;-86
2022/03/12 04:36:05;;;;;;;13.00;6.65;;;;;;;9.47;33.12;99882.31;4908079;29;20034;-87
2022/03/12 04:38:31;;;;;;;15.05;5.55;;;;;;;9.10;33.54;99872.91;4906908;29;20250;-87
2022/03/12 04:40:56;;;;;;;13.48;6.63;;;;;;;9.02;33.73;99881.50;4907972;29;20476;-86
2022/03/12 04:43:26;;;;;;;16.27;6.80;;;;;;;9.16;33.79;99877.34;4906078;29;20024;-86
2022/03/12 04:45:52;;;;;;;12.95;6.68;;;;;;;9.37;33.47;99872.16;4907458;29;20020;-87
2022/03/12 04:48:21;;;;;;;16.65;7.00;;;;;;;9.17;33.73;99884.41;4906243;29;20646;-86
2022/03/12 04:50:47;;;;;;;13.85;6.05;;;;;;;9.15;34.10;99885.75;4890113;29;20016;-86
2022/03/12 04:53:13;;;;;;;11.63;6.40;;;;;;;9.04;33.98;99895.66;4908165;29;20036;-87
2022/03/12 04:55:39;;;;;;;15.50;9.13;;;;;;;9.18;34.15;99896.94;4906608;29;20375;-87
2022/03/12 04:58:07;;;;;;;13.30;7.55;;;;;;;9.25;33.90;99901.38;4907504;29;20032;-86
2022/03/12 05:00:38;;;;;;;12.77;5.38;;;;;;;9.23;33.94;99891.56;4905978;29;20103;-87
2022/03/12 05:03:08;;;;;;;14.75;6.45;;;;;;;9.04;33.96;99884.78;4907668;29;20044;-87
2022/03/12 05:05:40;;;;;;;14.23;6.22;;;;;;;9.26;33.87;99895.69;4907392;29;20047;-87
2022/03/12 05:08:10;;;;;;;15.20;6.50;;;;;;;9.26;34.17;99892.97;4910822;29;20028;-87
2022/03/12 05:10:36;;;;;;;14.20;6.78;;;;;;;9.35;33.82;99896.06;4912153;29;20095;-87
2022/03/12 05:13:02;;;;;;;12.27;5.68;;;;;;;9.05;34.68;99900.03;4909262;29;20383;-88
2022/03/12 05:15:36;;;;;;;14.48;6.18;;;;;;;9.16;34.24;99892.81;4911766;29;20059;-87
2022/03/12 05:18:06;;;;;;;13.27;6.47;;;;;;;9.30;34.54;99894.09;4909719;29;20595;-87
2022/03/12 05:20:33;;;;;;;11.32;6.18;;;;;;;9.16;34.71;99898.25;4911341;29;20166;-86
2022/03/12 05:22:58;;;;;;;14.30;8.30;;;;;;;9.12;34.86;99895.22;4910832;29;20040;-86
2022/03/12 05:25:25;;;;;;;51.87;9.70;;;;;;;9.09;35.53;99904.72;4910521;29;20036;-87
2022/03/12 05:27:53;;;;;;;14.48;6.30;;;;;;;8.83;35.89;99903.53;4911552;29;20400;-87
2022/03/12 05:30:19;;;;;;;14.95;6.80;;;;;;;8.88;36.08;99898.19;4909183;29;20028;-86
2022/03/12 05:32:46;;;;;;;16.95;6.78;;;;;;;8.97;36.36;99896.66;4894384;29;20032;-87
2022/03/12 05:35:11;;;;;;;14.00;6.10;;;;;;;9.08;36.22;99894.91;4909340;29;20454;-87
2022/03/12 05:37:37;;;;;;;18.88;6.90;;;;;;;9.06;35.97;99898.94;4911304;29;20032;-87
2022/03/12 05:40:07;;;;;;;16.98;7.03;;;;;;;8.87;37.04;99910.09;4909969;29;20127;-88
2022/03/12 05:42:34;;;;;;;13.48;7.30;;;;;;;8.84;37.20;99913.34;4910044;29;20593;-86
2022/03/12 05:45:01;;;;;;;14.18;7.07;;;;;;;8.87;37.00;99912.81;4910407;29;20036;-88
2022/03/12 05:47:27;;;;;;;9.63;5.22;;;;;;;9.22;36.66;99911.69;4908701;29;20040;-86
2022/03/12 05:49:53;;;;;;;15.35;6.72;;;;;;;8.80;37.40;99920.34;4911003;29;20036;-87
2022/03/12 05:52:18;;;;;;;13.13;6.18;;;;;;;9.10;37.03;99919.97;4891834;29;20052;-87
2022/03/12 05:54:45;;;;;;;15.13;7.70;;;;;;;8.95;37.16;99920.56;4911006;29;20063;-86
2022/03/12 05:57:11;;;;;;;14.50;7.32;;;;;;;8.74;37.66;99925.72;4906624;29;20087;-86
2022/03/12 05:59:36;;;;;;;12.07;5.85;;;;;;;8.95;37.38;99915.13;4910575;29;20170;-87
2022/03/12 06:02:01;;;;;;;15.37;6.60;;;;;;;8.83;37.80;99917.13;4909948;29;20156;-86
2022/03/12 06:04:27;;;;;;;14.70;6.72;;;;;;;8.81;37.91;99913.81;4892203;29;20797;-87
2022/03/12 06:06:56;;;;;;;12.27;5.97;;;;;;;8.79;38.28;99922.22;4910821;29;20031;-86
2022/03/12 06:09:21;;;;;;;22.83;7.65;;;;;;;8.82;38.71;99913.59;4908225;29;20095;-86
2022/03/12 06:11:49;;;;;;;12.30;6.38;;;;;;;8.69;39.51;99922.91;4910706;29;20070;-87
2022/03/12 06:14:15;;;;;;;12.52;6.45;;;;;;;8.68;39.80;99915.84;4908328;29;20040;-86
2022/03/12 06:16:45;;;;;;;15.60;6.38;;;;;;;8.57;39.86;99930.31;4909872;29;20116;-85
2022/03/12 06:19:10;;;;;;;13.82;5.60;;;;;;;8.67;39.92;99930.47;4909403;29;20103;-86
2022/03/12 06:21:36;;;;;;;12.02;6.50;;;;;;;8.63;40.06;99929.34;4909334;29;20052;-86
2022/03/12 06:24:14;;;;;;;11.30;6.43;;;;;;;8.49;40.71;99929.63;4910206;29;20476;-86
2022/03/12 06:26:41;;;;;;;11.85;6.00;;;;;;;8.47;40.93;99926.34;4908463;29;20107;-86
2022/03/12 06:29:13;;;;;;;16.25;6.75;;;;;;;8.48;41.15;99930.69;4909670;29;20094;-87
2022/03/12 06:31:40;;;;;;;12.38;7.40;;;;;;;8.67;41.04;99935.09;4891850;29;20476;-86
2022/03/12 06:34:05;;;;;;;14.25;6.90;;;;;;;8.74;40.55;99925.72;4909819;29;20024;-86
2022/03/12 06:36:31;;;;;;;12.38;7.07;;;;;;;8.63;41.00;99934.75;4909901;29;20032;-87
2022/03/12 06:38:56;;;;;;;11.63;6.20;;;;;;;8.64;41.30;99923.63;4909032;29;20035;-87
2022/03/12 06:41:22;;;;;;;11.05;5.93;;;;;;;8.51;42.00;99935.66;4910336;29;20327;-87
2022/03/12 06:43:47;;;;;;;13.82;6.07;;;;;;;8.53;42.31;99935.41;4908010;29;20539;-87
2022/03/12 06:46:18;;;;;;;13.35;6.38;;;;;;;8.64;42.26;99928.28;4909914;29;20024;-87
2022/03/12 06:48:44;;;;;;;12.88;6.15;;;;;;;8.64;42.96;99937.22;4908269;29;20491;-86
2022/03/12 06:51:10;;;;;;;12.20;6.25;;;;;;;8.79;42.63;99943.19;4909817;29;20023;-86
2022/03/12 06:53:36;;;;;;;15.18;7.43;;;;;;;8.77;42.81;99946.13;4909477;29;20028;-86
2022/03/12 06:56:02;;;;;;;10.93;6.20;;;;;;;8.82;43.50;99938.06;4908840;29;20035;-87
2022/03/12 06:58:29;;;;;;;14.10;7.13;;;;;;;8.64;44.06;99945.38;4909500;29;20024;-86
2022/03/12 07:00:55;;;;;;;15.23;6.53;;;;;;;8.82;43.54;99948.09;4908568;29;20032;-86
2022/03/12 07:03:20;;;;;;;13.30;6.20;;;;;;;8.83;43.48;99944.31;4909928;29;20038;-87
2022/03/12 07:08:30;;;;;;;11.07;6.00;;;;;;;8.80;43.70;99945.66;4905871;29;20174;-86
2022/03/12 07:10:56;;;;;;;12.75;6.50;;;;;;;9.02;43.53;99952.19;4909571;29;20087;-86
2022/03/12 07:13:23;;;;;;;11.35;5.85;;;;;;;9.02;43.42;99953.03;4907675;29;20543;-87
2022/03/12 07:15:49;;;;;;;12.68;6.53;;;;;;;8.90;44.03;99955.84;4892203;29;20032;-87
2022/03/12 07:18:15;;;;;;;15.77;6.78;;;;;;;8.91;43.91;99968.34;4907303;29;20148;-86
2022/03/12 07:20:40;;;;;;;12.82;6.65;;;;;;;9.05;44.26;99966.13;4909248;29;20495;-87
2022/03/12 07:23:05;;;;;;;31.60;8.15;;;;;;;9.04;44.53;99977.25;4907433;29;20154;-87
2022/03/12 07:25:32;;;;;;;10.33;6.20;;;;;;;9.21;44.04;99978.03;4909374;29;20111;-87
2022/03/12 07:27:57;;;;;;;12.00;6.85;;;;;;;8.90;45.50;99977.59;4908191;29;20378;-87
2022/03/12 07:30:22;;;;;;;13.65;6.80;;;;;;;9.12;45.07;99974.09;4908192;29;20088;-87
2022/03/12 07:32:48;;;;;;;12.10;5.72;;;;;;;9.36;44.40;99971.16;4909733;29;20035;-87
2022/03/12 07:35:16;;;;;;;12.98;6.07;;;;;;;9.34;45.20;99967.88;4906839;29;20574;-87
2022/03/12 07:37:43;;;;;;;13.20;5.60;;;;;;;9.40;45.29;99972.31;4907882;29;20115;-87
2022/03/12 07:40:10;;;;;;;10.77;6.10;;;;;;;9.25;46.06;99974.84;4891044;29;20041;-87
2022/03/12 07:42:36;;;;;;;12.30;5.03;;;;;;;9.49;45.12;99977.31;4881330;29;20029;-86
2022/03/12 07:45:02;;;;;;;10.27;5.15;;;;;;;9.56;45.15;99986.09;4882822;29;20127;-88
2022/03/12 07:47:28;;;;;;;9.68;5.32;;;;;;;9.50;45.74;99981.69;4897366;29;20159;-87
2022/03/12 07:49:53;;;;;;;12.15;5.30;;;;;;;9.48;46.40;99976.50;4888771;29;20172;-86
2022/03/12 07:52:19;;;;;;;10.35;5.10;;;;;;;9.49;46.42;99980.88;4887221;29;20064;-87
2022/03/12 07:54:45;;;;;;;11.45;5.07;;;;;;;9.42;46.76;99994.66;4889512;29;20073;-86
2022/03/12 07:57:10;;;;;;;12.45;6.28;;;;;;;9.46;46.86;99976.75;4886902;29;20041;-87
2022/03/12 07:59:36;;;;;;;13.50;6.03;;;;;;;9.61;46.60;99980.75;4889453;29;20112;-87
2022/03/12 08:02:02;;;;;;;11.88;6.05;;;;;;;9.36;47.08;99979.31;4887426;29;20075;-88
2022/03/12 08:04:30;;;;;;;10.95;5.43;;;;;;;9.64;46.72;99980.22;4888957;29;20294;-87
2022/03/12 08:07:02;;;;;;;11.38;5.65;;;;;;;9.58;47.58;99984.78;4888472;29;20032;-88
2022/03/12 08:09:27;;;;;;;11.25;5.35;;;;;;;9.63;47.49;99962.25;4870881;29;20029;-87
2022/03/12 08:11:53;;;;;;;15.07;5.32;;;;;;;9.48;48.39;99979.22;4888582;29;20025;-86
2022/03/12 08:14:20;;;;;;;10.80;5.37;;;;;;;9.83;47.17;99974.47;4886920;29;20052;-87
2022/03/12 08:16:48;;;;;;;12.05;6.00;;;;;;;9.86;47.70;99978.59;4901936;29;20758;-88
2022/03/12 08:19:13;;;;;;;10.10;5.70;;;;;;;9.55;48.67;99976.31;4905627;29;20031;-85
2022/03/12 08:21:39;;;;;;;11.90;4.90;;;;;;;9.84;47.75;99986.19;4906738;29;20198;-87
2022/03/12 08:24:05;;;;;;;12.55;6.07;;;;;;;9.63;48.73;99983.22;4906692;29;20067;-88
2022/03/12 08:26:32;;;;;;;11.85;5.47;;;;;;;9.89;48.76;99983.50;4907141;29;20424;-88
2022/03/12 08:28:58;;;;;;;9.18;4.57;;;;;;;9.90;48.66;99991.44;4908385;29;20044;-87
2022/03/12 08:31:23;;;;;;;20.17;7.40;;;;;;;10.06;48.45;100010.69;4906743;29;20035;-87
2022/03/12 08:33:49;;;;;;;13.23;6.35;;;;;;;10.22;48.59;100010.84;4907985;29;20551;-88
2022/03/12 08:36:15;;;;;;;11.38;5.40;;;;;;;10.06;49.30;100012.56;4906446;29;20131;-87
2022/03/12 08:38:41;;;;;;;12.82;7.13;;;;;;;9.98;50.17;100011.13;4908130;29;20114;-88
2022/03/12 08:41:09;;;;;;;10.48;5.28;;;;;;;10.28;49.58;100009.81;4906355;29;20144;-87
2022/03/12 08:43:37;;;;;;;11.40;5.32;;;;;;;10.32;49.99;100010.94;4907243;29;20028;-87
2022/03/12 08:46:04;;;;;;;16.35;6.13;;;;;;;10.24;50.43;100025.03;4907887;29;20035;-87
2022/03/12 08:48:30;;;;;;;14.05;6.68;;;;;;;10.24;51.41;100014.13;4890315;29;20420;-87
2022/03/12 08:50:55;;;;;;;13.23;5.03;;;;;;;10.42;50.92;100026.59;4874852;29;20498;-87
2022/03/12 08:56:05;;;;;;;10.38;6.22;;;;;;;10.48;50.87;100041.06;4876699;29;20059;-87
2022/03/12 08:58:31;;;;;;;10.52;5.35;;;;;;;10.53;51.14;100049.34;4886308;29;20493;-87
2022/03/12 09:01:01;;;;;;;16.95;6.68;;;;;;;10.55;51.17;100052.66;4886859;29;20484;-87
2022/03/12 09:03:27;;;;;;;12.95;5.75;;;;;;;10.70;50.71;100049.22;4887708;29;20045;-87
2022/03/12 09:05:53;;;;;;;13.43;5.68;;;;;;;10.62;50.81;100047.78;4869721;29;20093;-87
2022/03/12 09:08:18;;;;;;;12.68;6.50;;;;;;;10.49;51.17;100064.56;4869878;29;20466;-87
2022/03/12 09:10:44;;;;;;;13.70;6.95;;;;;;;10.49;51.21;100064.56;4867951;29;20040;-87
2022/03/12 09:13:13;;;;;;;12.18;5.13;;;;;;;10.59;50.66;100061.97;4868756;29;20041;-88
2022/03/12 09:15:40;;;;;;;9.63;5.30;;;;;;;10.58;50.48;100068.47;4877872;29;20047;-88
2022/03/12 09:18:07;;;;;;;13.07;5.50;;;;;;;10.76;49.91;100063.72;4906157;29;20040;-87
2022/03/12 09:20:34;;;;;;;10.52;5.47;;;;;;;10.84;49.74;100071.44;4907027;29;20032;-87
2022/03/12 09:22:59;;;;;;;9.95;4.80;;;;;;;10.98;49.14;100077.28;4887684;29;20511;-87
2022/03/12 09:25:25;;;;;;;12.17;5.10;;;;;;;11.17;49.10;100070.63;4907310;29;20101;-88
2022/03/12 09:27:50;;;;;;;11.82;5.90;;;;;;;11.11;49.60;100080.66;4904274;29;20316;-87
2022/03/12 09:30:15;;;;;;;16.37;7.63;;;;;;;10.80;50.73;100083.94;4889925;29;20504;-88
2022/03/12 09:32:41;;;;;;;9.65;5.35;;;;;;;10.65;50.46;100083.81;4851820;29;20307;-88
2022/03/12 09:35:07;;;;;;;10.52;5.15;;;;;;;11.06;49.64;100073.28;4879025;29;20831;-87
2022/03/12 09:37:34;;;;;;;9.68;5.35;;;;;;;11.06;49.41;100076.00;4887904;29;20041;-88
2022/03/12 09:40:00;;;;;;;11.35;5.65;;;;;;;10.94;49.65;100083.53;4886651;29;20029;-87
2022/03/12 09:42:30;;;;;;;12.05;5.68;;;;;;;10.92;49.58;100085.72;4887888;29;20040;-88
2022/03/12 09:44:59;;;;;;;11.00;5.45;;;;;;;11.14;48.89;100091.09;4898798;29;20505;-88
2022/03/12 09:47:24;;;;;;;13.60;6.10;;;;;;;11.20;49.23;100090.03;4889641;29;20464;-88
2022/03/12 09:49:50;;;;;;;10.82;5.78;;;;;;;11.24;48.81;100103.97;4905363;29;20044;-88
2022/03/12 09:52:16;;;;;;;10.63;5.43;;;;;;;11.32;48.49;100108.13;4906511;29;20047;-87
2022/03/12 09:54:41;;;;;;;12.45;6.05;;;;;;;11.46;48.32;100103.03;4893110;29;20083;-88
2022/03/12 09:57:07;;;;;;;18.97;7.40;;;;;;;11.46;48.11;100113.13;4908880;29;20035;-87
2022/03/12 09:59:33;;;;;;;12.00;6.20;;;;;;;11.37;48.17;100116.34;4909937;29;20792;-88
2022/03/12 10:02:00;;;;;;;10.40;5.68;;;;;;;11.54;48.10;100109.91;4908103;29;20483;-88
2022/03/12 10:04:25;;;;;;;11.00;5.47;;;;;;;11.49;48.37;100113.41;4903950;29;20037;-88
2022/03/12 10:06:51;;;;;;;19.42;5.95;;;;;;;11.40;48.31;100115.00;4889004;29;20025;-88
2022/03/12 10:09:16;;;;;;;11.65;5.75;;;;;;;11.42;48.73;100113.66;4891595;29;20120;-88
2022/03/12 10:11:41;;;;;;;11.43;6.57;;;;;;;11.29;48.68;100109.47;4890375;29;20044;-88
2022/03/12 10:14:08;;;;;;;9.10;5.78;;;;;;;11.49;49.05;100118.09;4873148;29;20292;-88
2022/03/12 10:16:33;;;;;;;14.95;7.05;;;;;;;11.67;48.04;100103.19;4891535;29;20040;-87
2022/03/12 10:18:59;;;;;;;10.05;4.75;;;;;;;12.14;46.96;100106.19;4889382;29;20040;-88
2022/03/12 10:21:25;;;;;;;15.27;6.90;;;;;;;12.20;46.89;100094.19;4873812;29;20031;-88
2022/03/12 10:23:51;;;;;;;9.68;5.55;;;;;;;12.28;46.65;100106.50;4888627;29;20053;-88
2022/03/12 10:26:16;;;;;;;10.85;5.22;;;;;;;12.40;46.99;100094.50;4891301;29;20032;-88
2022/03/12 10:28:41;;;;;;;12.07;5.82;;;;;;;12.47;46.94;100097.78;4888724;29;20850;-87
2022/03/12 10:31:09;;;;;;;15.57;7.10;;;;;;;12.46;46.82;100101.63;4890894;29;20084;-88
2022/03/12 10:33:36;;;;;;;12.13;6.28;;;;;;;12.54;47.21;100095.63;4890405;29;20056;-88
2022/03/12 10:36:13;;;;;;;38.53;9.55;;;;;;;12.52;46.89;100088.78;4868841;29;20120;-89
2022/03/12 10:38:43;;;;;;;12.60;5.88;;;;;;;12.79;46.48;100098.69;4871682;29;20525;-87
2022/03/12 10:41:10;;;;;;;13.30;6.75;;;;;;;12.76;46.66;100094.56;4869899;29;20535;-89
2022/03/12 10:46:40;;;;;;;16.50;6.68;;;;;;;12.80;46.56;100089.38;4890697;29;20040;-89
2022/03/12 10:49:05;;;;;;;11.00;5.68;;;;;;;12.93;46.69;100097.06;4888952;29;20434;-90
2022/03/12 10:51:34;;;;;;;11.68;5.38;;;;;;;12.68;47.24;100103.31;4890378;29;20028;-88
2022/03/12 10:54:05;;;;;;;10.77;5.57;;;;;;;12.76;47.20;100097.31;4889361;29;20076;-88
2022/03/12 10:56:44;;;;;;;16.88;6.47;;;;;;;12.96;47.07;100090.22;4872251;29;20031;-85
2022/03/12 10:59:21;;;;;;;12.25;5.90;;;;;;;13.25;46.62;100092.41;4879130;29;20029;-83
2022/03/12 11:01:54;;;;;;;28.17;7.00;;;;;;;13.40;44.72;100090.75;4870564;29;20058;-83
2022/03/12 11:04:23;;;;;;;61.45;8.77;;;;;;;13.30;45.92;100088.84;4871088;29;20360;-83
2022/03/12 11:06:51;;;;;;;10.32;5.63;;;;;;;13.31;46.26;100098.69;4869720;29;20123;-85
2022/03/12 11:09:30;;;;;;;15.73;7.00;;;;;;;13.31;46.43;100098.69;4871377;29;20040;-82
2022/03/12 11:11:59;;;;;;;20.20;6.43;;;;;;;13.49;46.08;100093.75;4870160;29;20029;-83
2022/03/12 11:14:25;;;;;;;16.35;6.85;;;;;;;13.57;46.15;100090.47;4870455;29;20033;-84
2022/03/12 11:16:52;;;;;;;22.55;7.22;;;;;;;13.55;46.12;100092.66;4885325;29;20036;-84
2022/03/12 11:19:37;;;;;;;29.58;10.38;;;;;;;13.42;45.76;100094.84;4871119;29;20029;-83
2022/03/12 11:22:10;;;;;;;16.75;7.47;;;;;;;13.82;45.36;100080.56;4889670;29;20052;-84
2022/03/12 11:24:48;;;;;;;11.53;4.97;;;;;;;14.03;45.24;100087.88;4887774;29;20500;-84
2022/03/12 11:27:27;;;;;;;15.05;6.15;;;;;;;13.86;45.73;100087.13;4889332;29;20283;-83
2022/03/12 11:30:03;;;;;;;10.20;5.40;;;;;;;13.87;44.82;100082.47;4889257;29;20108;-83
2022/03/12 11:32:35;;;;;;;14.25;6.63;;;;;;;13.99;44.90;100090.38;4887885;29;20032;-84
2022/03/12 11:35:06;;;;;;;12.00;5.90;;;;;;;14.05;44.93;100089.25;4896742;29;20035;-83
2022/03/12 11:37:36;;;;;;;11.52;5.82;;;;;;;14.20;44.46;100084.78;4906459;29;20847;-84
2022/03/12 11:40:03;;;;;;;15.77;6.43;;;;;;;14.19;45.03;100083.16;4891143;29;20073;-84
2022/03/12 11:42:33;;;;;;;13.05;6.10;;;;;;;14.25;44.42;100087.50;4907582;29;20032;-84
2022/03/12 11:45:01;;;;;;;36.72;8.75;;;;;;;14.39;44.23;100082.22;4894291;29;20569;-83
2022/03/12 11:47:31;;;;;;;8.82;5.93;;;;;;;14.28;44.72;100073.22;4889129;29;20316;-83